Current Conditions
Misty
Conditions



Pressure
1022.92 (hPa) - 30.21 (inHG)
Visibility

4.0 (km) - 2.5 (miles)
   Temperature
1  °C
34°F
1  °C
Dewpoint
100  %
 Humidity
   Wind Speed
8  km/h
4  kts
5  mph
2.2  m/s
   Wind Direction
 50°
North East
   Airport Data
LHPR
Location Győr-Pér International Airport 10 km (6.22 mi)
Metar :LHPR 292315Z AUTO 05004KT 4000 BR OVC036 01/01 Q1023
Wed 30th November 01:15 am
   Raw Metar Info
Raw METAR is the most common format in the world for the transmission of observational weather data. It is highly standardized through the International Civil Aviation Organization (ICAO), which allows it to be understood throughout most of the world.
   API Info
Data Provided by
https://www.checkwx.com/weather/LHPR
   © Info
CSS/SVG/PHP scripts were developed by weather34.com for use in the weather34 template © 2015-2022

Guide Info provided by Metar-Wikipedia